Time;durP1;ratioP1;P1;durP2;ratioP2;P2;SDS_P1;SDS_P2;PMS_P1;PMS_P2;Temp;Humidity;BMP_temperature;BMP_pressure;BME280_temperature;BME280_humidity;BME280_pressure;Samples;Min_cycle;Max_cycle;Signal;HPM_P1;HPM_P2
2023/01/26 00:01:48;;;;;;;5.73;5.33;;;;;;;5.13;67.05;100412.22;4990211;28;20195;-75
2023/01/26 00:04:16;;;;;;;6.93;6.30;;;;;;;5.15;68.21;100412.94;4986715;28;20733;-75
2023/01/26 00:06:42;;;;;;;7.27;6.57;;;;;;;5.14;69.67;100405.97;4974331;28;20230;-76
2023/01/26 00:09:13;;;;;;;8.77;7.97;;;;;;;5.11;70.99;100393.91;4982563;28;20195;-75
2023/01/26 00:11:39;;;;;;;9.37;8.43;;;;;;;5.10;72.64;100381.72;4990740;28;20186;-75
2023/01/26 00:14:06;;;;;;;11.23;8.00;;;;;;;4.99;72.97;100363.44;4992777;28;20257;-75
2023/01/26 00:16:34;;;;;;;9.00;8.10;;;;;;;4.90;73.50;100358.19;4991956;28;20226;-76
2023/01/26 00:19:02;;;;;;;12.17;8.30;;;;;;;4.81;73.52;100348.47;4992087;28;20256;-75
2023/01/26 00:21:30;;;;;;;13.70;9.37;;;;;;;4.81;73.90;100354.59;4988859;28;20286;-75
2023/01/26 00:23:58;;;;;;;11.77;9.30;;;;;;;4.78;73.36;100346.97;4973168;28;20195;-75
2023/01/26 00:26:26;;;;;;;11.00;8.97;;;;;;;4.78;73.99;100340.88;4972861;28;20706;-75
2023/01/26 00:28:54;;;;;;;8.13;7.43;;;;;;;4.81;73.87;100343.22;4972942;28;20242;-74
2023/01/26 00:31:23;;;;;;;9.87;8.20;;;;;;;4.84;73.44;100343.78;4985667;28;20581;-74
2023/01/26 00:33:50;;;;;;;8.53;7.57;;;;;;;4.90;73.96;100337.16;4991925;28;20194;-74
2023/01/26 00:36:17;;;;;;;7.87;7.17;;;;;;;4.93;72.42;100342.94;4991799;28;20202;-74
2023/01/26 00:38:46;;;;;;;9.40;6.00;;;;;;;4.99;72.04;100352.91;4992150;28;20202;-74
2023/01/26 00:42:05;;;;;;;5.07;4.77;;;;;;;5.01;69.62;100350.97;4991306;28;20198;-74
2023/01/26 00:44:00;;;;;;;5.60;5.20;;;;;;;5.06;67.76;100354.03;4953372;29;20235;-74
2023/01/26 00:46:26;;;;;;;5.93;5.53;;;;;;;4.58;67.16;100362.88;4969260;28;20289;-74
2023/01/26 00:48:53;;;;;;;5.43;5.03;;;;;;;4.71;67.52;100369.53;4973005;28;20639;-75
2023/01/26 00:51:20;;;;;;;6.07;5.57;;;;;;;4.86;67.35;100368.16;4986499;28;20194;-74
2023/01/26 00:53:48;;;;;;;9.40;6.07;;;;;;;4.75;66.77;100360.38;4973167;28;20199;-74
2023/01/26 00:56:14;;;;;;;5.67;5.27;;;;;;;4.76;67.35;100354.19;4984460;28;20199;-75
2023/01/26 00:58:41;;;;;;;6.23;5.73;;;;;;;4.86;67.22;100357.63;4983722;28;20454;-75
2023/01/26 01:01:08;;;;;;;7.20;6.53;;;;;;;4.96;66.95;100353.22;4976848;28;20195;-75
2023/01/26 01:03:35;;;;;;;6.90;6.30;;;;;;;5.02;67.72;100357.06;4976713;28;20274;-75
2023/01/26 01:06:02;;;;;;;7.03;6.33;;;;;;;5.03;67.95;100356.94;4976162;28;20222;-74
2023/01/26 01:08:28;;;;;;;7.63;6.93;;;;;;;4.99;68.90;100350.28;4988134;28;20250;-75
2023/01/26 01:11:05;;;;;;;10.10;9.10;;;;;;;4.96;69.77;100345.31;4976115;28;20250;-75
2023/01/26 01:13:31;;;;;;;12.83;11.43;;;;;;;4.82;73.63;100322.03;4994553;28;20201;-74
2023/01/26 01:15:58;;;;;;;21.03;11.93;;;;;;;4.68;77.37;100304.03;4994971;28;20293;-75
2023/01/26 01:18:25;;;;;;;18.93;11.77;;;;;;;4.66;78.22;100318.31;4993716;28;20661;-75
2023/01/26 01:20:51;;;;;;;23.33;12.50;;;;;;;4.56;79.29;100310.41;4995083;28;20742;-75
2023/01/26 01:23:18;;;;;;;15.97;11.57;;;;;;;4.53;79.66;100301.94;4978648;28;20246;-75
2023/01/26 01:25:46;;;;;;;15.47;11.90;;;;;;;4.52;80.59;100289.75;4993914;28;20699;-75
2023/01/26 01:28:14;;;;;;;21.37;12.73;;;;;;;4.51;80.90;100294.22;4956719;28;20290;-75
2023/01/26 01:30:40;;;;;;;18.13;11.97;;;;;;;4.43;80.93;100298.50;4972797;28;20225;-74
2023/01/26 01:33:07;;;;;;;20.67;12.37;;;;;;;4.39;81.61;100283.94;4992047;28;20450;-74
2023/01/26 01:35:34;;;;;;;13.80;11.67;;;;;;;4.42;81.49;100286.31;4995123;28;20674;-73
2023/01/26 01:38:01;;;;;;;16.80;11.87;;;;;;;4.36;81.85;100279.81;4992157;28;20449;-73
2023/01/26 01:40:28;;;;;;;17.87;11.77;;;;;;;4.37;81.81;100278.81;4993359;28;20222;-74
2023/01/26 01:42:55;;;;;;;16.07;11.30;;;;;;;4.33;81.58;100287.97;4981708;28;20195;-73
2023/01/26 01:45:42;;;;;;;14.73;11.13;;;;;;;4.32;81.70;100281.03;4975392;28;20633;-74
2023/01/26 01:48:14;;;;;;;16.07;11.50;;;;;;;4.20;82.50;100274.25;4975188;28;20188;-74
2023/01/26 01:50:43;;;;;;;12.10;10.60;;;;;;;4.09;83.25;100274.34;4975514;28;20722;-74
2023/01/26 01:53:14;;;;;;;13.80;11.93;;;;;;;4.06;84.52;100264.13;4990038;28;20559;-74
2023/01/26 01:55:41;;;;;;;12.97;11.57;;;;;;;3.97;84.38;100266.75;4994456;28;20456;-74
2023/01/26 01:58:09;;;;;;;13.20;10.63;;;;;;;3.88;85.31;100262.31;4984933;28;20442;-74
2023/01/26 02:00:36;;;;;;;14.43;11.43;;;;;;;3.76;85.62;100258.94;4975122;28;20206;-74
2023/01/26 02:03:14;;;;;;;17.00;11.60;;;;;;;3.68;86.58;100244.81;4977601;28;20481;-74
2023/01/26 02:05:52;;;;;;;15.97;11.47;;;;;;;3.65;86.63;100235.41;4978078;28;20445;-74
2023/01/26 02:08:21;;;;;;;13.80;11.43;;;;;;;3.67;87.01;100238.72;4994147;28;20472;-74
2023/01/26 02:10:49;;;;;;;12.30;10.70;;;;;;;3.64;87.00;100249.50;4985296;28;20442;-74
2023/01/26 02:13:18;;;;;;;14.40;11.07;;;;;;;3.61;87.59;100247.16;4989561;28;20453;-74
2023/01/26 02:15:45;;;;;;;13.70;10.77;;;;;;;3.65;87.98;100235.41;4994385;28;20528;-74
2023/01/26 02:18:13;;;;;;;14.47;11.43;;;;;;;3.71;87.34;100240.13;4994244;28;20512;-74
2023/01/26 02:20:45;;;;;;;12.00;10.00;;;;;;;3.80;87.51;100238.50;4993899;28;20520;-75
2023/01/26 02:23:25;;;;;;;11.80;10.03;;;;;;;3.83;86.50;100239.06;4983080;28;20502;-75
2023/01/26 02:26:14;;;;;;;13.70;11.20;;;;;;;3.83;86.08;100233.78;4993957;28;20437;-75
2023/01/26 02:28:42;;;;;;;13.77;10.20;;;;;;;3.86;85.57;100238.78;4993866;28;20485;-75
2023/01/26 02:31:10;;;;;;;15.00;11.27;;;;;;;3.86;85.54;100243.19;4988038;28;20446;-75
2023/01/26 02:33:37;;;;;;;17.00;12.00;;;;;;;3.78;86.03;100236.00;4976309;28;20454;-75
2023/01/26 02:36:05;;;;;;;16.07;11.67;;;;;;;3.68;86.20;100229.88;4974804;28;20442;-75
2023/01/26 02:38:40;;;;;;;15.37;11.30;;;;;;;3.58;86.88;100223.78;4974355;28;20799;-75
2023/01/26 02:41:08;;;;;;;17.03;12.60;;;;;;;3.53;87.22;100225.13;4974844;28;20449;-74
2023/01/26 02:43:36;;;;;;;17.13;12.10;;;;;;;3.55;87.75;100224.03;4984336;28;20531;-74
2023/01/26 02:46:02;;;;;;;15.10;11.87;;;;;;;3.48;88.19;100215.03;4994049;28;20468;-74
2023/01/26 02:51:13;;;;;;;19.53;12.03;;;;;;;3.43;88.38;100209.34;4994227;28;20410;-74
2023/01/26 02:53:40;;;;;;;15.87;11.33;;;;;;;3.38;89.31;100216.81;4978038;28;20454;-74
2023/01/26 02:56:06;;;;;;;17.03;12.03;;;;;;;3.41;89.13;100202.56;4974700;28;20501;-74
2023/01/26 02:58:33;;;;;;;16.43;11.80;;;;;;;3.46;89.17;100214.34;4974056;28;20875;-74
2023/01/26 03:01:01;;;;;;;17.43;12.77;;;;;;;3.52;88.95;100205.91;4974423;28;20442;-75
2023/01/26 03:03:40;;;;;;;17.50;12.47;;;;;;;3.56;88.69;100203.88;4977057;28;20575;-74
2023/01/26 03:06:08;;;;;;;21.23;12.53;;;;;;;3.57;89.15;100203.75;4973982;28;20938;-74
2023/01/26 03:08:35;;;;;;;16.70;12.60;;;;;;;3.58;89.37;100202.78;4974573;28;20461;-75
2023/01/26 03:11:01;;;;;;;15.83;12.00;;;;;;;3.55;88.49;100203.03;4979128;28;20454;-75
2023/01/26 03:13:28;;;;;;;16.10;11.97;;;;;;;3.59;88.97;100196.53;4986183;28;20508;-75
2023/01/26 03:15:55;;;;;;;13.90;11.10;;;;;;;3.65;89.95;100203.06;4992702;28;20531;-75
2023/01/26 03:29:25;;;;;;;14.43;11.03;;;;;;;3.73;88.73;100179.56;4973900;28;20465;-74
2023/01/26 03:31:52;;;;;;;15.00;11.60;;;;;;;3.74;88.37;100171.56;4987456;28;20447;-74
2023/01/26 03:34:20;;;;;;;13.10;11.53;;;;;;;3.76;88.45;100168.81;4991947;28;20846;-74
2023/01/26 03:36:48;;;;;;;15.27;11.70;;;;;;;3.72;88.38;100164.78;4992470;28;20464;-73
2023/01/26 03:58:23;;;;;;;15.60;11.70;;;;;;;4.28;85.86;100140.28;4988742;28;20441;-74
2023/01/26 04:00:49;;;;;;;19.13;11.77;;;;;;;4.34;85.81;100133.66;4972614;28;20450;-74
2023/01/26 04:08:47;;;;;;;19.50;11.77;;;;;;;4.58;84.27;100120.88;4978221;28;20440;-73
2023/01/26 04:11:14;;;;;;;18.37;13.67;;;;;;;4.58;83.84;100136.66;4987649;28;20222;-73
2023/01/26 04:21:54;;;;;;;14.33;9.83;;;;;;;4.71;82.02;100131.91;4974786;28;20705;-73
2023/01/26 04:24:21;;;;;;;10.87;9.60;;;;;;;4.68;80.81;100125.13;4992560;28;20446;-73
2023/01/26 04:26:48;;;;;;;11.47;9.43;;;;;;;4.71;80.55;100116.13;4991552;28;20272;-74
2023/01/26 04:29:16;;;;;;;11.40;9.60;;;;;;;4.75;80.23;100118.28;4993504;28;20507;-73
2023/01/26 04:31:43;;;;;;;15.27;10.87;;;;;;;4.75;79.04;100117.47;4993458;28;20666;-73
2023/01/26 04:34:12;;;;;;;11.00;9.80;;;;;;;4.76;78.92;100114.72;4992599;28;20198;-73
2023/01/26 04:36:39;;;;;;;12.00;10.47;;;;;;;4.77;78.65;100115.53;4995558;28;20198;-74
2023/01/26 04:39:07;;;;;;;10.97;9.77;;;;;;;4.77;78.91;100105.00;4994162;28;20264;-74
2023/01/26 04:41:34;;;;;;;13.57;10.10;;;;;;;4.79;78.88;100109.13;4988957;28;20246;-74
2023/01/26 04:44:01;;;;;;;11.33;8.67;;;;;;;4.80;78.21;100108.19;4977968;28;20454;-74
2023/01/26 04:46:27;;;;;;;12.10;9.87;;;;;;;4.83;78.45;100107.06;4976424;28;20574;-75
2023/01/26 04:48:54;;;;;;;14.47;11.13;;;;;;;4.82;77.99;100108.03;4977369;28;20219;-73
2023/01/26 04:51:22;;;;;;;14.63;10.93;;;;;;;4.84;77.79;100112.19;4976694;28;20250;-74
2023/01/26 04:53:50;;;;;;;14.20;11.93;;;;;;;4.85;78.21;100113.84;4987769;28;20245;-74
2023/01/26 04:56:22;;;;;;;14.70;11.53;;;;;;;4.88;78.13;100112.72;4996088;28;20198;-73
2023/01/26 04:58:49;;;;;;;11.27;9.83;;;;;;;4.90;77.93;100116.84;4976875;28;20187;-74
2023/01/26 05:01:16;;;;;;;14.40;9.83;;;;;;;4.91;77.51;100123.78;4976392;28;20261;-74
2023/01/26 05:03:43;;;;;;;16.63;10.40;;;;;;;4.88;76.80;100126.72;4986315;28;20284;-74
2023/01/26 05:06:10;;;;;;;13.67;10.10;;;;;;;4.87;77.24;100122.41;4995213;28;20322;-74
2023/01/26 05:08:37;;;;;;;12.90;9.97;;;;;;;4.88;77.32;100117.97;4980290;28;20270;-74
2023/01/26 05:11:05;;;;;;;19.03;10.07;;;;;;;4.88;76.45;100123.25;4994911;28;20736;-74
2023/01/26 05:13:34;;;;;;;20.00;10.77;;;;;;;4.88;76.41;100116.19;4993855;28;20190;-73
2023/01/26 05:16:01;;;;;;;13.93;10.30;;;;;;;4.60;75.94;100114.47;4993667;28;20572;-74
2023/01/26 05:18:28;;;;;;;13.57;10.63;;;;;;;4.71;76.35;100111.66;4980085;28;20257;-74
2023/01/26 05:20:55;;;;;;;14.83;10.77;;;;;;;4.58;76.35;100094.56;4975679;28;20505;-74
2023/01/26 05:23:22;;;;;;;14.77;10.57;;;;;;;4.64;76.04;100109.75;4975817;28;20207;-74
2023/01/26 05:25:49;;;;;;;13.33;8.57;;;;;;;4.62;76.25;100109.88;4975514;28;20191;-74
2023/01/26 05:28:15;;;;;;;13.17;10.17;;;;;;;4.40;76.00;100104.13;4989194;28;20709;-74
2023/01/26 05:30:43;;;;;;;10.50;9.50;;;;;;;4.45;76.63;100104.56;4988362;28;20454;-74
2023/01/26 05:33:11;;;;;;;12.70;9.60;;;;;;;4.29;76.51;100096.44;4976125;28;20508;-75
2023/01/26 05:35:37;;;;;;;16.90;10.03;;;;;;;4.34;77.18;100092.38;4975726;28;20454;-75
2023/01/26 05:38:04;;;;;;;16.77;10.43;;;;;;;4.42;77.27;100081.19;4987344;28;20206;-74
2023/01/26 05:40:31;;;;;;;10.50;8.90;;;;;;;4.49;77.71;100085.72;4993005;28;20507;-75
2023/01/26 05:42:58;;;;;;;11.13;9.10;;;;;;;4.53;77.46;100087.09;4986391;28;20203;-74
2023/01/26 05:45:24;;;;;;;11.17;8.40;;;;;;;4.57;77.42;100088.47;4975311;28;20195;-74
2023/01/26 05:47:52;;;;;;;10.00;9.07;;;;;;;4.59;76.98;100086.53;4984937;28;20559;-74
2023/01/26 05:50:19;;;;;;;12.80;11.30;;;;;;;4.51;76.04;100088.19;4994855;28;20194;-74
2023/01/26 05:52:46;;;;;;;11.07;9.53;;;;;;;4.42;76.80;100089.88;4994260;28;20508;-75
2023/01/26 05:55:14;;;;;;;13.60;10.77;;;;;;;4.46;76.43;100077.28;4994788;28;20444;-74
2023/01/26 05:57:40;;;;;;;10.83;9.80;;;;;;;4.52;76.40;100085.44;4984792;28;20458;-73
2023/01/26 06:00:08;;;;;;;12.43;11.13;;;;;;;4.46;75.79;100086.00;4994091;28;20442;-73
2023/01/26 06:02:35;;;;;;;31.20;20.87;;;;;;;4.47;75.97;100092.94;4993662;28;20278;-72
2023/01/26 06:05:04;;;;;;;18.20;13.20;;;;;;;4.46;75.49;100090.44;4980385;28;20450;-73
2023/01/26 06:07:31;;;;;;;9.17;8.23;;;;;;;4.44;75.08;100082.69;4975028;28;20277;-71
2023/01/26 06:09:58;;;;;;;14.20;11.13;;;;;;;4.45;74.84;100079.06;4974667;28;20544;-71
2023/01/26 06:12:30;;;;;;;15.50;11.80;;;;;;;4.46;77.58;100054.44;4984480;28;20801;-73
2023/01/26 06:14:57;;;;;;;13.90;11.37;;;;;;;4.53;76.59;100070.47;4987242;28;20464;-74
2023/01/26 06:17:24;;;;;;;23.63;16.87;;;;;;;4.55;75.77;100077.25;4982769;28;20230;-74
2023/01/26 06:19:51;;;;;;;19.00;15.63;;;;;;;4.59;75.60;100078.63;4983838;28;20989;-72
2023/01/26 06:22:19;;;;;;;17.77;15.77;;;;;;;4.56;75.51;100075.44;4983272;28;20199;-73
2023/01/26 06:24:46;;;;;;;22.53;18.93;;;;;;;4.58;75.79;100079.59;4983922;28;20445;-74
2023/01/26 06:27:14;;;;;;;25.73;19.23;;;;;;;4.57;75.94;100075.31;4984581;28;20795;-74
2023/01/26 06:29:41;;;;;;;24.57;17.83;;;;;;;4.56;76.66;100083.34;4984086;28;20442;-74
2023/01/26 06:32:09;;;;;;;22.70;17.90;;;;;;;4.46;76.52;100080.72;4979629;28;20198;-74
2023/01/26 06:34:36;;;;;;;15.63;10.80;;;;;;;4.47;76.66;100077.16;4984220;28;20442;-74
2023/01/26 06:37:03;;;;;;;13.80;12.27;;;;;;;4.49;76.67;100080.44;4982749;28;20461;-73
2023/01/26 06:39:31;;;;;;;18.27;14.30;;;;;;;4.51;77.12;100075.06;4984132;28;21012;-72
2023/01/26 06:41:57;;;;;;;16.63;13.17;;;;;;;4.53;76.88;100071.31;4981788;28;20434;-73
2023/01/26 06:44:24;;;;;;;13.30;11.90;;;;;;;4.56;76.59;100068.38;4986315;28;20446;-74
2023/01/26 06:46:51;;;;;;;13.90;12.43;;;;;;;4.52;76.18;100063.56;4982129;28;20446;-73
2023/01/26 06:49:17;;;;;;;11.67;10.57;;;;;;;4.46;76.42;100054.44;4984415;28;20477;-74
2023/01/26 06:51:48;;;;;;;11.80;10.60;;;;;;;4.43;76.70;100059.16;4981999;28;20953;-73
2023/01/26 06:54:15;;;;;;;12.83;11.40;;;;;;;4.36;77.32;100058.91;4985160;28;20453;-75
2023/01/26 06:56:43;;;;;;;21.70;18.83;;;;;;;4.26;78.31;100047.59;4984800;28;20452;-72
2023/01/26 06:59:10;;;;;;;14.17;11.97;;;;;;;4.33;78.95;100051.28;4981692;28;20218;-75
2023/01/26 07:01:43;;;;;;;13.70;11.00;;;;;;;4.31;78.81;100044.53;4981696;28;20517;-73
2023/01/26 07:04:10;;;;;;;12.90;11.23;;;;;;;4.32;79.28;100047.00;4980548;28;20434;-70
2023/01/26 07:06:37;;;;;;;32.67;21.57;;;;;;;4.40;79.61;100038.41;4978888;28;20964;-73
2023/01/26 07:09:04;;;;;;;15.93;14.33;;;;;;;4.46;79.36;100043.09;4978124;28;20869;-77
2023/01/26 07:11:31;;;;;;;16.90;11.73;;;;;;;4.50;79.66;100036.56;4985594;28;20198;-74
2023/01/26 07:14:00;;;;;;;9.97;8.90;;;;;;;4.53;78.63;100029.22;4981938;28;20628;-73
2023/01/26 07:16:27;;;;;;;11.30;10.20;;;;;;;4.51;76.67;100036.44;4982933;28;20237;-73
2023/01/26 07:18:54;;;;;;;14.90;10.03;;;;;;;4.51;76.89;100031.19;4988132;28;20973;-71
2023/01/26 07:21:21;;;;;;;13.63;11.03;;;;;;;4.45;77.42;100030.94;4992484;28;20452;-73
2023/01/26 07:23:49;;;;;;;12.37;11.13;;;;;;;4.58;79.00;100020.91;4966255;28;20555;-71
2023/01/26 07:26:16;;;;;;;18.53;10.03;;;;;;;4.66;77.56;100024.44;4953816;28;20743;-73
2023/01/26 07:28:43;;;;;;;14.00;12.67;;;;;;;4.64;77.27;100025.56;4984286;28;20583;-73
2023/01/26 07:31:12;;;;;;;12.77;11.30;;;;;;;4.56;77.15;100012.31;4979959;28;20208;-73
2023/01/26 07:33:39;;;;;;;14.47;12.33;;;;;;;4.68;77.47;100019.88;4971911;28;20199;-73
2023/01/26 07:36:06;;;;;;;15.60;11.47;;;;;;;4.68;76.37;100014.63;4981836;28;20276;-72
2023/01/26 07:38:33;;;;;;;16.03;12.63;;;;;;;4.70;77.28;100010.03;4979922;28;20262;-74
2023/01/26 07:41:05;;;;;;;14.77;11.90;;;;;;;4.82;77.52;100008.03;4968068;28;20549;-73
2023/01/26 07:43:33;;;;;;;12.03;10.37;;;;;;;4.88;77.32;100000.38;4973823;28;20187;-73
2023/01/26 07:46:00;;;;;;;14.50;12.97;;;;;;;4.71;78.09;100008.22;4976589;28;20457;-72
2023/01/26 07:48:29;;;;;;;11.37;9.70;;;;;;;4.74;78.72;100003.50;4975845;28;20474;-69
2023/01/26 07:50:59;;;;;;;23.83;17.17;;;;;;;4.74;79.27;99990.34;4981970;28;20234;-68
2023/01/26 07:53:28;;;;;;;17.07;13.93;;;;;;;4.86;79.43;100004.94;4973503;28;20270;-68
2023/01/26 07:55:56;;;;;;;11.33;9.90;;;;;;;4.88;79.57;100003.00;4969709;28;20199;-70
2023/01/26 07:58:23;;;;;;;17.80;12.93;;;;;;;4.90;80.00;100003.69;4972553;28;20199;-71
2023/01/26 08:00:49;;;;;;;12.67;10.03;;;;;;;4.90;79.81;100005.50;4973023;28;20261;-70
2023/01/26 08:03:16;;;;;;;11.87;10.67;;;;;;;4.76;80.62;99993.66;4973136;28;20202;-70
2023/01/26 08:05:46;;;;;;;20.70;15.87;;;;;;;4.80;81.17;99995.03;4974068;28;20520;-69
2023/01/26 08:08:12;;;;;;;12.57;10.00;;;;;;;4.77;81.33;99995.31;4990503;28;20302;-69
2023/01/26 08:10:39;;;;;;;9.57;8.67;;;;;;;4.70;82.11;99988.97;4976442;28;20250;-69
2023/01/26 08:13:06;;;;;;;9.43;8.53;;;;;;;4.74;82.58;99992.97;4972408;28;20447;-69
2023/01/26 08:15:32;;;;;;;19.97;15.53;;;;;;;4.71;83.42;99988.00;4973459;28;20191;-68
2023/01/26 08:18:02;;;;;;;11.17;9.90;;;;;;;4.61;84.73;99986.38;4963890;28;20207;-67
2023/01/26 08:20:29;;;;;;;13.40;10.63;;;;;;;4.52;84.33;99985.47;4957424;28;20526;-69
2023/01/26 08:22:57;;;;;;;13.90;9.70;;;;;;;4.38;86.09;99983.31;4971847;28;20443;-68
2023/01/26 08:25:24;;;;;;;12.63;10.40;;;;;;;4.21;87.30;99991.97;4978910;28;20530;-68
2023/01/26 08:27:50;;;;;;;10.77;9.60;;;;;;;4.29;87.59;99984.19;4972834;28;20532;-67
2023/01/26 08:30:17;;;;;;;12.47;10.97;;;;;;;3.94;88.24;99983.19;4974472;28;20194;-67
2023/01/26 08:32:44;;;;;;;14.23;12.00;;;;;;;3.90;88.98;99976.56;4952978;28;20514;-68
2023/01/26 08:35:11;;;;;;;16.50;12.23;;;;;;;3.98;89.26;99974.91;4981913;28;20442;-68
2023/01/26 08:37:37;;;;;;;14.33;12.37;;;;;;;4.11;89.21;99982.44;4976458;28;20501;-69
2023/01/26 08:40:07;;;;;;;13.23;11.30;;;;;;;3.94;89.14;99977.94;4972529;28;20450;-68
2023/01/26 08:42:34;;;;;;;18.30;12.90;;;;;;;3.97;89.57;99967.97;4974178;28;21044;-67
2023/01/26 08:45:01;;;;;;;15.60;12.60;;;;;;;4.03;90.02;99967.41;4976359;28;20637;-68
2023/01/26 08:47:27;;;;;;;17.73;13.37;;;;;;;4.18;89.10;99959.88;4982655;28;20442;-68
2023/01/26 08:49:54;;;;;;;19.13;13.10;;;;;;;4.25;89.37;99964.41;4980360;28;20478;-67
2023/01/26 08:52:21;;;;;;;13.77;12.30;;;;;;;4.22;89.51;99963.88;4979900;28;20451;-68
2023/01/26 08:54:48;;;;;;;16.93;13.63;;;;;;;4.38;88.82;99953.56;4979948;28;20440;-68
2023/01/26 08:57:16;;;;;;;14.70;11.50;;;;;;;4.41;88.23;99951.47;4974026;28;20972;-68
2023/01/26 08:59:43;;;;;;;12.80;10.90;;;;;;;4.37;88.18;99952.72;4981548;28;20199;-69
2023/01/26 09:02:10;;;;;;;15.80;11.20;;;;;;;4.40;87.98;99955.09;4971686;28;20512;-70
2023/01/26 09:04:37;;;;;;;13.13;10.33;;;;;;;4.42;88.05;99947.84;4970569;28;20450;-68
2023/01/26 09:07:05;;;;;;;25.27;14.07;;;;;;;4.44;88.08;99945.09;4972581;28;20458;-69
2023/01/26 09:09:32;;;;;;;14.53;10.73;;;;;;;4.53;88.85;99944.19;4971075;28;20462;-66
2023/01/26 09:11:59;;;;;;;13.60;10.63;;;;;;;4.58;89.03;99942.78;4973919;28;20802;-69
2023/01/26 09:14:27;;;;;;;11.67;9.80;;;;;;;4.66;88.69;99953.41;4971628;28;20994;-66
2023/01/26 09:16:54;;;;;;;11.87;10.53;;;;;;;4.65;88.42;99949.13;4977767;28;20508;-68
2023/01/26 09:19:21;;;;;;;12.20;10.07;;;;;;;4.60;88.85;99946.13;4975102;28;20493;-70
2023/01/26 09:21:52;;;;;;;37.73;20.33;;;;;;;4.74;88.81;99944.81;4974808;28;20482;-68
2023/01/26 09:24:19;;;;;;;18.63;13.37;;;;;;;4.81;88.17;99932.69;4967360;28;20245;-72
2023/01/26 09:26:46;;;;;;;13.40;11.20;;;;;;;4.82;88.24;99934.38;4973662;28;20202;-69
2023/01/26 09:29:12;;;;;;;13.37;9.67;;;;;;;4.69;87.27;99929.44;4975415;28;20532;-68
2023/01/26 09:31:40;;;;;;;16.67;11.73;;;;;;;4.46;87.96;99917.66;4984771;28;20469;-68
2023/01/26 09:34:07;;;;;;;20.07;18.07;;;;;;;4.46;89.08;99916.84;4974472;28;20199;-67
2023/01/26 09:36:34;;;;;;;17.67;14.23;;;;;;;4.78;93.36;99902.22;4976393;28;20195;-66
2023/01/26 09:39:01;;;;;;;11.73;10.10;;;;;;;5.02;91.49;99904.25;4976980;28;20233;-70
2023/01/26 09:41:55;;;;;;;12.70;10.07;;;;;;;5.04;90.31;99902.31;4975111;28;20202;-69
2023/01/26 09:44:24;;;;;;;10.50;9.10;;;;;;;5.06;88.71;99895.94;4970563;28;20257;-67
2023/01/26 09:47:03;;;;;;;11.07;9.87;;;;;;;4.98;88.32;99893.22;4980290;28;20195;-70
2023/01/26 09:49:42;;;;;;;11.43;9.03;;;;;;;5.00;88.11;99886.00;4975218;28;20250;-68
2023/01/26 09:52:18;;;;;;;10.43;9.33;;;;;;;4.93;88.03;99869.16;4975243;28;20241;-66
2023/01/26 09:54:49;;;;;;;13.07;9.33;;;;;;;4.93;88.09;99873.59;4983869;28;20182;-68
2023/01/26 09:57:18;;;;;;;13.30;10.20;;;;;;;4.92;88.11;99866.69;4981409;28;20199;-68
2023/01/26 09:59:51;;;;;;;12.77;11.47;;;;;;;4.95;88.17;99872.44;4976398;28;20203;-68
2023/01/26 10:02:34;;;;;;;11.20;10.20;;;;;;;4.90;87.72;99864.19;4973475;28;20195;-70
2023/01/26 10:05:07;;;;;;;9.33;8.43;;;;;;;4.86;87.44;99860.22;4971941;28;20521;-69
2023/01/26 10:07:34;;;;;;;14.13;11.03;;;;;;;4.90;88.26;99856.28;4976790;28;20219;-68
2023/01/26 10:10:03;;;;;;;10.70;9.60;;;;;;;4.78;87.82;99846.97;4974808;28;20482;-68
2023/01/26 10:12:34;;;;;;;12.40;10.37;;;;;;;4.84;88.51;99843.75;4975413;28;20214;-68
2023/01/26 10:15:07;;;;;;;12.70;9.97;;;;;;;4.83;88.51;99842.09;4975966;28;20434;-68
2023/01/26 10:17:38;;;;;;;11.63;10.47;;;;;;;4.88;88.71;99839.84;4972993;28;20251;-68
2023/01/26 10:20:12;;;;;;;12.40;10.30;;;;;;;4.93;88.51;99836.75;4974824;28;20254;-67
2023/01/26 10:22:44;;;;;;;15.37;11.20;;;;;;;4.94;87.93;99836.59;4974568;28;20246;-70
2023/01/26 10:25:15;;;;;;;10.67;9.67;;;;;;;4.96;88.11;99846.97;4979941;28;20179;-69
2023/01/26 10:27:44;;;;;;;11.63;10.37;;;;;;;4.99;88.25;99833.53;4979698;28;20574;-69
2023/01/26 10:30:14;;;;;;;15.93;14.10;;;;;;;5.04;87.90;99824.19;4974341;28;20243;-68
2023/01/26 10:32:44;;;;;;;10.70;9.60;;;;;;;5.09;87.35;99814.03;4972956;28;20469;-67
2023/01/26 10:35:18;;;;;;;10.03;9.03;;;;;;;5.13;87.42;99812.72;4974349;28;20242;-68
2023/01/26 10:37:46;;;;;;;16.50;11.73;;;;;;;5.13;86.99;99796.94;4974847;28;20191;-68
2023/01/26 10:40:13;;;;;;;13.83;12.43;;;;;;;5.13;87.24;99796.94;4974383;28;20199;-69
2023/01/26 10:42:41;;;;;;;13.90;10.53;;;;;;;5.09;86.48;99790.31;4976928;28;20191;-69
2023/01/26 10:45:25;;;;;;;12.73;11.30;;;;;;;4.99;87.63;99779.06;4979450;28;20195;-68
2023/01/26 10:48:05;;;;;;;12.27;10.73;;;;;;;4.84;87.85;99770.06;4970440;28;20655;-67
2023/01/26 10:50:32;;;;;;;11.00;9.83;;;;;;;4.89;88.94;99772.22;4977210;28;20250;-68
2023/01/26 10:53:00;;;;;;;10.50;9.40;;;;;;;4.92;89.21;99764.03;4974071;28;20347;-69
2023/01/26 10:55:29;;;;;;;11.43;10.23;;;;;;;5.00;88.97;99764.94;4974237;28;20195;-68
2023/01/26 10:57:56;;;;;;;14.03;10.70;;;;;;;5.06;88.49;99753.78;4973825;28;20262;-68
2023/01/26 11:00:27;;;;;;;12.07;10.07;;;;;;;5.19;87.98;99753.38;4973786;28;20265;-69
2023/01/26 11:02:59;;;;;;;29.47;9.13;;;;;;;5.49;96.80;99755.50;4972696;28;20298;-69
2023/01/26 11:05:27;;;;;;;12.13;10.80;;;;;;;5.55;94.58;99752.22;4978026;28;20179;-69
2023/01/26 11:07:59;;;;;;;13.00;10.60;;;;;;;5.46;90.51;99751.38;4973556;28;20196;-67
2023/01/26 11:10:29;;;;;;;13.37;11.20;;;;;;;5.52;88.51;99749.94;4973863;28;20198;-68
2023/01/26 11:13:23;;;;;;;13.87;10.70;;;;;;;5.48;87.85;99749.41;4973453;28;20203;-68
2023/01/26 11:16:00;;;;;;;11.40;10.27;;;;;;;5.58;87.05;99742.22;4936929;28;20219;-73
2023/01/26 11:18:41;;;;;;;11.63;10.53;;;;;;;5.50;85.59;99742.19;4969589;28;20269;-72
2023/01/26 11:21:15;;;;;;;12.27;10.33;;;;;;;5.40;85.41;99740.66;4973855;28;20209;-74
2023/01/26 11:24:01;;;;;;;14.00;11.13;;;;;;;5.30;86.84;99729.38;4968744;28;20278;-71
2023/01/26 11:27:08;;;;;;;12.93;11.57;;;;;;;5.26;87.61;99731.50;4971848;28;20190;-74
2023/01/26 11:30:14;;;;;;;15.17;13.63;;;;;;;5.31;87.29;99716.06;4971776;28;20233;-74
2023/01/26 11:32:51;;;;;;;13.53;11.70;;;;;;;5.27;87.06;99714.72;4971014;28;20195;-74
2023/01/26 11:35:29;;;;;;;15.90;13.00;;;;;;;5.21;87.44;99699.56;4971956;28;20250;-75
2023/01/26 11:38:09;;;;;;;14.33;12.40;;;;;;;5.26;88.77;99686.75;4966594;28;20187;-75
2023/01/26 11:40:41;;;;;;;12.33;11.10;;;;;;;5.07;88.20;99675.63;4971648;28;20189;-73
2023/01/26 11:43:32;;;;;;;14.40;11.53;;;;;;;5.03;88.83;99669.84;4977192;28;20223;-74
2023/01/26 11:46:11;;;;;;;13.73;12.33;;;;;;;5.09;89.65;99669.22;4974699;28;20273;-74
2023/01/26 11:48:51;;;;;;;13.33;11.90;;;;;;;5.18;89.69;99662.19;4972356;28;20737;-75
2023/01/26 11:51:26;;;;;;;13.57;11.80;;;;;;;5.12;88.66;99662.81;4976563;28;20187;-74
2023/01/26 11:54:18;;;;;;;12.00;10.80;;;;;;;5.09;88.89;99653.44;4974136;28;20191;-75
2023/01/26 11:56:50;;;;;;;13.47;12.00;;;;;;;5.04;89.07;99650.44;4975016;28;20682;-73
2023/01/26 11:59:21;;;;;;;22.57;15.63;;;;;;;5.02;89.31;99652.41;4972305;28;20670;-73
2023/01/26 12:01:53;;;;;;;18.67;13.70;;;;;;;5.12;89.83;99650.50;4976202;28;20187;-74
2023/01/26 12:04:21;;;;;;;18.57;15.07;;;;;;;5.25;90.23;99647.41;4976816;28;20486;-74
2023/01/26 12:06:54;;;;;;;14.33;12.60;;;;;;;5.32;89.48;99640.53;4972095;28;20199;-75
2023/01/26 12:09:32;;;;;;;16.07;12.80;;;;;;;5.32;88.70;99635.25;4971654;28;20215;-72
2023/01/26 12:12:04;;;;;;;18.43;14.63;;;;;;;5.28;88.56;99618.94;4972260;28;20194;-74
2023/01/26 12:14:37;;;;;;;34.87;24.20;;;;;;;5.37;88.83;99622.44;4977888;28;20225;-76
2023/01/26 12:17:27;;;;;;;18.57;14.70;;;;;;;5.30;87.99;99624.88;4975855;28;20974;-76
2023/01/26 12:20:03;;;;;;;17.90;13.73;;;;;;;5.14;87.97;99605.56;4976716;28;20187;-76
2023/01/26 12:22:34;;;;;;;19.20;15.13;;;;;;;5.27;88.56;99617.28;4970775;28;20202;-74